createdAt,value
2017-10-24T00:00:03.921Z,1005.89
2017-10-24T00:01:13.414Z,1005.96
2017-10-24T00:02:22.877Z,1006.00
2017-10-24T00:03:32.861Z,1005.92
2017-10-24T00:04:42.360Z,1005.88
2017-10-24T00:05:52.116Z,1005.75
2017-10-24T00:07:01.358Z,1005.77
2017-10-24T00:08:10.820Z,1005.87
2017-10-24T00:09:20.321Z,1005.86
2017-10-24T00:10:29.847Z,1005.95
2017-10-24T00:11:39.393Z,1005.95
2017-10-24T00:12:48.306Z,1005.99
2017-10-24T00:13:58.413Z,1006.09
2017-10-24T00:15:07.943Z,1006.08
2017-10-24T00:16:17.581Z,1006.03
2017-10-24T00:17:26.826Z,1005.99
2017-10-24T00:18:35.844Z,1006.05
2017-10-24T00:19:45.793Z,1006.04
2017-10-24T00:20:55.312Z,1006.11
2017-10-24T00:22:04.846Z,1006.02
2017-10-24T00:23:13.865Z,1005.97
2017-10-24T00:24:23.920Z,1006.04
2017-10-24T00:25:33.349Z,1006.08
2017-10-24T00:26:43.048Z,1005.96
2017-10-24T00:27:51.808Z,1006.03
2017-10-24T00:29:01.312Z,1005.93
2017-10-24T00:30:11.295Z,1006.03
2017-10-24T00:31:20.331Z,1006.07
2017-10-24T00:32:29.905Z,1005.99
2017-10-24T00:33:39.304Z,1006.04
2017-10-24T00:34:49.447Z,1006.02
2017-10-24T00:35:58.829Z,1006.00
2017-10-24T00:37:08.331Z,1005.97
2017-10-24T00:38:17.314Z,1006.02
2017-10-24T00:39:26.956Z,1005.99
2017-10-24T00:40:36.343Z,1006.00
2017-10-24T00:41:45.840Z,1005.96
2017-10-24T00:42:55.314Z,1006.02
2017-10-24T00:44:05.486Z,1006.03
2017-10-24T00:45:14.840Z,1006.00
2017-10-24T00:46:24.042Z,1006.05
2017-10-24T00:47:33.899Z,1005.98
2017-10-24T00:48:43.432Z,1006.03
2017-10-24T00:49:52.935Z,1006.04
2017-10-24T00:51:01.895Z,1006.07
2017-10-24T00:52:11.919Z,1006.03
2017-10-24T00:53:21.422Z,1006.09
2017-10-24T00:54:30.956Z,1006.05
2017-10-24T00:55:40.593Z,1006.08
2017-10-24T00:56:49.356Z,1006.04
2017-10-24T00:57:59.442Z,1006.15
2017-10-24T00:59:08.899Z,1006.18
2017-10-24T01:00:18.428Z,1006.16
2017-10-24T01:01:27.977Z,1006.16
2017-10-24T01:02:37.898Z,1006.12
2017-10-24T01:03:46.991Z,1006.10
2017-10-24T01:04:56.446Z,1006.09
2017-10-24T01:06:07.082Z,1006.11
2017-10-24T01:07:15.519Z,1006.12
2017-10-24T01:08:24.934Z,1006.11
2017-10-24T01:09:33.916Z,1006.04
2017-10-24T01:10:43.922Z,1006.14
2017-10-24T01:11:53.446Z,1006.09
2017-10-24T01:13:02.517Z,1006.04
2017-10-24T01:14:11.938Z,1006.09
2017-10-24T01:15:21.503Z,1006.21
2017-10-24T01:16:31.567Z,1006.13
2017-10-24T01:17:40.977Z,1006.20
2017-10-24T01:18:50.511Z,1006.26
2017-10-24T01:20:00.114Z,1006.26
2017-10-24T01:21:09.581Z,1006.27
2017-10-24T01:22:18.494Z,1006.24
2017-10-24T01:23:27.979Z,1006.16
2017-10-24T01:24:37.997Z,1006.18
2017-10-24T01:25:47.519Z,1006.20
2017-10-24T01:26:57.015Z,1006.22
2017-10-24T01:28:06.485Z,1006.16
2017-10-24T01:29:15.506Z,1006.20
2017-10-24T01:30:25.167Z,1006.16
2017-10-24T01:31:35.054Z,1006.21
2017-10-24T01:32:44.496Z,1006.24
2017-10-24T01:33:54.004Z,1006.22
2017-10-24T01:35:03.525Z,1006.34
2017-10-24T01:36:12.558Z,1006.25
2017-10-24T01:37:22.071Z,1006.32
2017-10-24T01:38:31.676Z,1006.28
2017-10-24T01:39:41.542Z,1006.29
2017-10-24T01:40:51.255Z,1006.28
2017-10-24T01:42:00.142Z,1006.23
2017-10-24T01:43:09.519Z,1006.26
2017-10-24T01:44:19.022Z,1006.27
2017-10-24T01:45:28.539Z,1006.25
2017-10-24T01:46:38.056Z,1006.26
2017-10-24T01:47:47.538Z,1006.33
2017-10-24T01:48:57.067Z,1006.28
2017-10-24T01:50:06.542Z,1006.35
2017-10-24T01:51:16.063Z,1006.33
2017-10-24T01:52:25.545Z,1006.34
2017-10-24T01:53:35.086Z,1006.29
2017-10-24T01:54:44.558Z,1006.40
2017-10-24T01:55:54.078Z,1006.38
2017-10-24T01:57:03.590Z,1006.26
2017-10-24T01:58:13.066Z,1006.28
2017-10-24T01:59:22.573Z,1006.37
2017-10-24T02:00:32.075Z,1006.39
2017-10-24T02:01:41.619Z,1006.38
2017-10-24T02:02:51.100Z,1006.36
2017-10-24T02:04:01.246Z,1006.31
2017-10-24T02:05:10.262Z,1006.33
2017-10-24T02:06:19.732Z,1006.35
2017-10-24T02:07:29.142Z,1006.28
2017-10-24T02:08:38.625Z,1006.31
2017-10-24T02:09:48.132Z,1006.32
2017-10-24T02:10:57.765Z,1006.37
2017-10-24T02:12:07.676Z,1006.33
2017-10-24T02:13:17.206Z,1006.36
2017-10-24T02:14:26.164Z,1006.33
2017-10-24T02:15:35.679Z,1006.28
2017-10-24T02:16:45.203Z,1006.18
2017-10-24T02:17:54.713Z,1006.19
2017-10-24T02:19:04.204Z,1006.16
2017-10-24T02:20:14.696Z,1006.29
2017-10-24T02:21:23.833Z,1006.24
2017-10-24T02:22:32.901Z,1006.32
2017-10-24T02:23:42.776Z,1006.21
2017-10-24T02:24:51.738Z,1006.28
2017-10-24T02:26:01.771Z,1006.27
2017-10-24T02:27:11.266Z,1006.24
2017-10-24T02:28:20.361Z,1006.21
2017-10-24T02:29:30.326Z,1006.19
2017-10-24T02:30:39.284Z,1006.16
2017-10-24T02:31:50.017Z,1006.16
2017-10-24T02:32:58.817Z,1006.16
2017-10-24T02:34:07.823Z,1006.16
2017-10-24T02:35:17.876Z,1006.17
2017-10-24T02:36:26.876Z,1006.17
2017-10-24T02:37:36.933Z,1006.17
2017-10-24T02:38:46.363Z,1006.19
2017-10-24T02:39:55.896Z,1006.10
2017-10-24T02:41:05.609Z,1006.14
2017-10-24T02:42:14.384Z,1006.21
2017-10-24T02:43:24.559Z,1006.16
2017-10-24T02:44:33.916Z,1006.19
2017-10-24T02:45:43.446Z,1006.25
2017-10-24T02:46:52.992Z,1006.26
2017-10-24T02:48:02.580Z,1006.18
2017-10-24T02:49:12.038Z,1006.24
2017-10-24T02:50:21.564Z,1006.27
2017-10-24T02:51:30.599Z,1006.24
2017-10-24T02:52:40.524Z,1006.25
2017-10-24T02:53:50.060Z,1006.30
2017-10-24T02:54:59.022Z,1006.27
2017-10-24T02:56:08.975Z,1006.37
2017-10-24T02:57:18.209Z,1006.29
2017-10-24T02:58:27.565Z,1006.35
2017-10-24T02:59:37.097Z,1006.34
2017-10-24T03:00:46.621Z,1006.35
2017-10-24T03:01:56.118Z,1006.31
2017-10-24T03:03:06.104Z,1006.34
2017-10-24T03:04:15.215Z,1006.30
2017-10-24T03:05:24.641Z,1006.39
2017-10-24T03:06:34.188Z,1006.44
2017-10-24T03:07:43.701Z,1006.35
2017-10-24T03:08:53.665Z,1006.34
2017-10-24T03:10:02.766Z,1006.40
2017-10-24T03:11:12.219Z,1006.35
2017-10-24T03:12:21.723Z,1006.33
2017-10-24T03:13:31.220Z,1006.33
2017-10-24T03:14:41.296Z,1006.36
2017-10-24T03:15:50.901Z,1006.39
2017-10-24T03:17:00.373Z,1006.39
2017-10-24T03:18:09.888Z,1006.36
2017-10-24T03:19:19.418Z,1006.41
2017-10-24T03:20:29.326Z,1006.42
2017-10-24T03:21:38.409Z,1006.45
2017-10-24T03:22:47.984Z,1006.50
2017-10-24T03:23:57.437Z,1006.40
2017-10-24T03:25:06.967Z,1006.41
2017-10-24T03:26:16.518Z,1006.44
2017-10-24T03:27:26.103Z,1006.46
2017-10-24T03:28:35.566Z,1006.39
2017-10-24T03:29:44.513Z,1006.45
2017-10-24T03:30:54.701Z,1006.47
2017-10-24T03:32:04.165Z,1006.47
2017-10-24T03:33:13.088Z,1006.49
2017-10-24T03:34:23.210Z,1006.47
2017-10-24T03:35:32.646Z,1006.52
2017-10-24T03:36:42.190Z,1006.62
2017-10-24T03:37:51.702Z,1006.55
2017-10-24T03:39:00.822Z,1006.69
2017-10-24T03:40:10.761Z,1006.58
2017-10-24T03:41:20.330Z,1006.60
2017-10-24T03:42:29.793Z,1006.66
2017-10-24T03:43:39.352Z,1006.64
2017-10-24T03:44:48.575Z,1006.56
2017-10-24T03:45:57.900Z,1006.53
2017-10-24T03:47:07.450Z,1006.58
2017-10-24T03:48:17.442Z,1006.56
2017-10-24T03:49:26.493Z,1006.54
2017-10-24T03:50:36.030Z,1006.59
2017-10-24T03:51:45.557Z,1006.60
2017-10-24T03:52:55.595Z,1006.60
2017-10-24T03:54:05.124Z,1006.53
2017-10-24T03:55:14.221Z,1006.53
2017-10-24T03:56:24.369Z,1006.50
2017-10-24T03:57:33.279Z,1006.47
2017-10-24T03:58:42.733Z,1006.50
2017-10-24T03:59:52.782Z,1006.51
2017-10-24T04:01:02.410Z,1006.51
2017-10-24T04:02:11.853Z,1006.46
2017-10-24T04:03:20.861Z,1006.46
2017-10-24T04:04:30.875Z,1006.42
2017-10-24T04:05:39.914Z,1006.44
2017-10-24T04:06:49.988Z,1006.40
2017-10-24T04:07:58.982Z,1006.41
2017-10-24T04:09:08.509Z,1006.50
2017-10-24T04:10:18.042Z,1006.47
2017-10-24T04:11:27.600Z,1006.44
2017-10-24T04:12:37.120Z,1006.46
2017-10-24T04:13:46.634Z,1006.45
2017-10-24T04:14:56.673Z,1006.42
2017-10-24T04:16:06.208Z,1006.44
2017-10-24T04:17:15.251Z,1006.44
2017-10-24T04:18:24.754Z,1006.49
2017-10-24T04:19:34.283Z,1006.43
2017-10-24T04:20:44.404Z,1006.50
2017-10-24T04:21:53.359Z,1006.50
2017-10-24T04:23:02.858Z,1006.53
2017-10-24T04:24:12.916Z,1006.49
2017-10-24T04:25:22.011Z,1006.46
2017-10-24T04:26:31.470Z,1006.48
2017-10-24T04:27:40.961Z,1006.46
2017-10-24T04:28:50.982Z,1006.49
2017-10-24T04:30:00.510Z,1006.45
2017-10-24T04:31:10.100Z,1006.42
2017-10-24T04:32:19.138Z,1006.43
2017-10-24T04:33:29.161Z,1006.43
2017-10-24T04:34:38.127Z,1006.33
2017-10-24T04:35:48.220Z,1006.40
2017-10-24T04:36:57.210Z,1006.44
2017-10-24T04:38:06.770Z,1006.49
2017-10-24T04:39:16.741Z,1006.44
2017-10-24T04:40:26.342Z,1006.47
2017-10-24T04:41:35.361Z,1006.49
2017-10-24T04:42:44.825Z,1006.47
2017-10-24T04:43:54.347Z,1006.51
2017-10-24T04:45:03.951Z,1006.48
2017-10-24T04:46:13.902Z,1006.46
2017-10-24T04:47:22.952Z,1006.50
2017-10-24T04:48:32.965Z,1006.53
2017-10-24T04:49:42.558Z,1006.56
2017-10-24T04:50:51.604Z,1006.46
2017-10-24T04:52:01.574Z,1006.57
2017-10-24T04:53:11.075Z,1006.56
2017-10-24T04:54:20.607Z,1006.59
2017-10-24T04:55:30.136Z,1006.62
2017-10-24T04:56:39.175Z,1006.68
2017-10-24T04:57:49.169Z,1006.65
2017-10-24T04:58:58.697Z,1006.63
2017-10-24T05:00:07.746Z,1006.59
2017-10-24T05:01:17.266Z,1006.67
2017-10-24T05:02:26.806Z,1006.59
2017-10-24T05:03:36.412Z,1006.63
2017-10-24T05:04:45.864Z,1006.67
2017-10-24T05:05:55.363Z,1006.62
2017-10-24T05:07:04.912Z,1006.61
2017-10-24T05:08:14.457Z,1006.65
2017-10-24T05:09:23.935Z,1006.61
2017-10-24T05:10:33.519Z,1006.63
2017-10-24T05:11:43.049Z,1006.66
2017-10-24T05:12:53.108Z,1006.71
2017-10-24T05:14:02.113Z,1006.60
2017-10-24T05:15:12.563Z,1006.62
2017-10-24T05:16:21.172Z,1006.62
2017-10-24T05:17:30.651Z,1006.65
2017-10-24T05:18:40.232Z,1006.64
2017-10-24T05:19:49.762Z,1006.52
2017-10-24T05:20:59.704Z,1006.58
2017-10-24T05:22:09.334Z,1006.59
2017-10-24T05:23:18.352Z,1006.63
2017-10-24T05:24:27.883Z,1006.63
2017-10-24T05:25:37.415Z,1006.61
2017-10-24T05:26:46.849Z,1006.66
2017-10-24T05:27:56.401Z,1006.55
2017-10-24T05:29:05.897Z,1006.52
2017-10-24T05:30:15.411Z,1006.55
2017-10-24T05:31:24.964Z,1006.51
2017-10-24T05:32:34.978Z,1006.47
2017-10-24T05:33:43.988Z,1006.39
2017-10-24T05:34:53.661Z,1006.39
2017-10-24T05:36:03.040Z,1006.43
2017-10-24T05:37:12.562Z,1006.44
2017-10-24T05:38:22.404Z,1006.41
2017-10-24T05:39:31.618Z,1006.38
2017-10-24T05:40:41.145Z,1006.39
2017-10-24T05:41:50.664Z,1006.47
2017-10-24T05:43:00.528Z,1006.50
2017-10-24T05:44:09.705Z,1006.44
2017-10-24T05:45:19.238Z,1006.51
2017-10-24T05:46:28.833Z,1006.51
2017-10-24T05:47:38.265Z,1006.47
2017-10-24T05:48:48.807Z,1006.50
2017-10-24T05:49:57.349Z,1006.51
2017-10-24T05:51:06.956Z,1006.56
2017-10-24T05:52:16.409Z,1006.61
2017-10-24T05:53:25.955Z,1006.54
2017-10-24T05:54:35.468Z,1006.50
2017-10-24T05:55:45.415Z,1006.59
2017-10-24T05:56:54.531Z,1006.52
2017-10-24T05:58:03.963Z,1006.62
2017-10-24T05:59:13.675Z,1006.58
2017-10-24T06:00:22.998Z,1006.56
2017-10-24T06:01:32.521Z,1006.60
2017-10-24T06:02:42.043Z,1006.55
2017-10-24T06:03:51.588Z,1006.56
2017-10-24T06:05:01.144Z,1006.70
2017-10-24T06:06:10.615Z,1006.61
2017-10-24T06:07:20.208Z,1006.62
2017-10-24T06:08:29.834Z,1006.65
2017-10-24T06:09:39.265Z,1006.59
2017-10-24T06:10:49.276Z,1006.58
2017-10-24T06:11:58.741Z,1006.57
2017-10-24T06:13:07.758Z,1006.57
2017-10-24T06:14:17.370Z,1006.51
2017-10-24T06:15:26.781Z,1006.48
2017-10-24T06:16:36.857Z,1006.54
2017-10-24T06:17:45.876Z,1006.63
2017-10-24T06:18:55.375Z,1006.57
2017-10-24T06:20:04.934Z,1006.60
2017-10-24T06:21:14.465Z,1006.56
2017-10-24T06:22:24.813Z,1006.59
2017-10-24T06:23:34.448Z,1006.57
2017-10-24T06:24:43.003Z,1006.54
2017-10-24T06:25:53.714Z,1006.67
2017-10-24T06:27:02.231Z,1006.61
2017-10-24T06:28:11.714Z,1006.70
2017-10-24T06:29:21.107Z,1006.69
2017-10-24T06:30:30.622Z,1006.66
2017-10-24T06:31:40.138Z,1006.72
2017-10-24T06:32:50.152Z,1006.73
2017-10-24T06:33:59.274Z,1006.68
2017-10-24T06:35:08.986Z,1006.68
2017-10-24T06:36:18.259Z,1006.67
2017-10-24T06:37:27.763Z,1006.75
2017-10-24T06:38:37.321Z,1006.77
2017-10-24T06:39:46.839Z,1006.79
2017-10-24T06:40:56.347Z,1006.62
2017-10-24T06:42:05.894Z,1006.63
2017-10-24T06:43:15.410Z,1006.61
2017-10-24T06:44:24.977Z,1006.67
2017-10-24T06:45:34.527Z,1006.65
2017-10-24T06:46:44.034Z,1006.74
2017-10-24T06:47:53.530Z,1006.76
2017-10-24T06:49:03.060Z,1006.75
2017-10-24T06:50:12.640Z,1006.89
2017-10-24T06:51:22.154Z,1006.81
2017-10-24T06:52:31.763Z,1006.84
2017-10-24T06:53:41.189Z,1006.86
2017-10-24T06:54:50.762Z,1006.82
2017-10-24T06:56:00.280Z,1006.91
2017-10-24T06:57:09.805Z,1006.92
2017-10-24T06:58:19.340Z,1006.91
2017-10-24T06:59:28.973Z,1006.88
2017-10-24T07:00:38.432Z,1007.00
2017-10-24T07:01:48.031Z,1006.95
2017-10-24T07:02:57.564Z,1006.92
2017-10-24T07:04:07.017Z,1006.96
2017-10-24T07:05:16.582Z,1007.03
2017-10-24T07:06:26.154Z,1006.97
2017-10-24T07:07:35.633Z,1006.95
2017-10-24T07:08:45.289Z,1007.05
2017-10-24T07:09:55.001Z,1006.99
2017-10-24T07:11:04.279Z,1007.01
2017-10-24T07:12:13.981Z,1007.08
2017-10-24T07:13:24.361Z,1007.11
2017-10-24T07:14:32.920Z,1007.05
2017-10-24T07:15:42.519Z,1007.09
2017-10-24T07:16:52.104Z,1007.10
2017-10-24T07:18:01.567Z,1007.15
2017-10-24T07:19:11.190Z,1007.15
2017-10-24T07:20:20.824Z,1007.11
2017-10-24T07:21:30.257Z,1007.14
2017-10-24T07:22:39.783Z,1007.11
2017-10-24T07:23:49.324Z,1007.08
2017-10-24T07:24:58.949Z,1007.12
2017-10-24T07:26:08.447Z,1007.16
2017-10-24T07:27:18.083Z,1007.25
2017-10-24T07:28:27.537Z,1007.12
2017-10-24T07:29:37.071Z,1007.17
2017-10-24T07:30:46.700Z,1007.17
2017-10-24T07:31:56.169Z,1007.11
2017-10-24T07:33:05.712Z,1007.12
2017-10-24T07:34:15.295Z,1007.07
2017-10-24T07:35:24.822Z,1007.08
2017-10-24T07:36:34.385Z,1007.03
2017-10-24T07:37:44.062Z,1007.04
2017-10-24T07:38:53.593Z,1006.92
2017-10-24T07:40:03.046Z,1006.94
2017-10-24T07:41:12.601Z,1007.03
2017-10-24T07:42:22.208Z,1007.04
2017-10-24T07:43:31.686Z,1007.12
2017-10-24T07:44:41.272Z,1007.09
2017-10-24T07:45:50.878Z,1007.10
2017-10-24T07:47:00.619Z,1007.16
2017-10-24T07:48:09.968Z,1007.16
2017-10-24T07:49:19.496Z,1007.24
2017-10-24T07:50:28.995Z,1007.22
2017-10-24T07:51:38.578Z,1007.11
2017-10-24T07:52:48.190Z,1007.18
2017-10-24T07:53:57.660Z,1007.21
2017-10-24T07:55:07.231Z,1007.24
2017-10-24T07:56:16.778Z,1007.28
2017-10-24T07:57:26.417Z,1007.32
2017-10-24T07:58:35.947Z,1007.34
2017-10-24T07:59:45.429Z,1007.34
2017-10-24T08:00:55.006Z,1007.31
2017-10-24T08:02:04.565Z,1007.26
2017-10-24T08:03:14.088Z,1007.26
2017-10-24T08:04:23.697Z,1007.25
2017-10-24T08:05:33.191Z,1007.25
2017-10-24T08:06:42.943Z,1007.18
2017-10-24T08:07:52.398Z,1007.16
2017-10-24T08:09:01.921Z,1007.06
2017-10-24T08:10:11.404Z,1006.97
2017-10-24T08:11:20.954Z,1006.92
2017-10-24T08:12:30.529Z,1006.95
2017-10-24T08:13:40.144Z,1007.06
2017-10-24T08:14:49.753Z,1006.97
2017-10-24T08:15:59.160Z,1007.09
2017-10-24T08:17:08.856Z,1007.14
2017-10-24T08:18:18.371Z,1007.06
2017-10-24T08:19:28.210Z,1007.21
2017-10-24T08:20:37.431Z,1007.24
2017-10-24T08:21:46.963Z,1007.08
2017-10-24T08:22:56.555Z,1007.05
2017-10-24T08:24:06.101Z,1007.00
2017-10-24T08:25:15.833Z,1007.06
2017-10-24T08:26:25.301Z,1007.02
2017-10-24T08:27:34.816Z,1006.98
2017-10-24T08:28:44.453Z,1007.01
2017-10-24T08:29:53.935Z,1007.07
2017-10-24T08:31:03.511Z,1007.06
2017-10-24T08:32:13.145Z,1006.91
2017-10-24T08:33:22.680Z,1006.95
2017-10-24T08:34:32.236Z,1006.98
2017-10-24T08:35:41.839Z,1007.03
2017-10-24T08:36:51.368Z,1007.03
2017-10-24T08:38:01.468Z,1007.06
2017-10-24T08:39:10.532Z,1007.07
2017-10-24T08:40:20.168Z,1006.98
2017-10-24T08:41:29.674Z,1007.01
2017-10-24T08:42:39.276Z,1007.07
2017-10-24T08:43:48.844Z,1007.03
2017-10-24T08:44:58.570Z,1007.06
2017-10-24T08:46:08.023Z,1007.09
2017-10-24T08:47:17.581Z,1007.07
2017-10-24T08:48:27.177Z,1007.08
2017-10-24T08:49:36.817Z,1007.10
2017-10-24T08:50:46.326Z,1007.09
2017-10-24T08:51:55.981Z,1007.07
2017-10-24T08:53:05.518Z,1007.05
2017-10-24T08:54:15.086Z,1006.99
2017-10-24T08:55:24.671Z,1007.04
2017-10-24T08:56:34.270Z,1006.97
2017-10-24T08:57:43.944Z,1007.08
2017-10-24T08:58:53.432Z,1007.13
2017-10-24T09:00:03.014Z,1007.12
2017-10-24T09:01:12.634Z,1007.07
2017-10-24T09:02:22.195Z,1007.15
2017-10-24T09:03:31.827Z,1007.09
2017-10-24T09:04:41.431Z,1007.10
2017-10-24T09:05:50.968Z,1007.14
2017-10-24T09:07:00.557Z,1007.08
2017-10-24T09:08:10.242Z,1007.06
2017-10-24T09:09:19.757Z,1007.08
2017-10-24T09:10:29.389Z,1007.10
2017-10-24T09:11:38.923Z,1007.10
2017-10-24T09:12:48.524Z,1007.12
2017-10-24T09:13:58.189Z,1007.07
2017-10-24T09:15:07.716Z,1007.07
2017-10-24T09:16:17.276Z,1007.02
2017-10-24T09:17:26.880Z,1006.99
2017-10-24T09:18:36.474Z,1007.03
2017-10-24T09:19:46.145Z,1007.05
2017-10-24T09:20:55.647Z,1006.90
2017-10-24T09:22:05.253Z,1007.02
2017-10-24T09:23:15.200Z,1007.03
2017-10-24T09:24:24.472Z,1007.14
2017-10-24T09:25:34.104Z,1007.08
2017-10-24T09:26:43.696Z,1007.05
2017-10-24T09:27:53.335Z,1007.18
2017-10-24T09:29:02.931Z,1007.40
2017-10-24T09:30:12.637Z,1007.19
2017-10-24T09:31:22.177Z,1007.45
2017-10-24T09:32:31.802Z,1007.07
2017-10-24T09:33:41.461Z,1007.16
2017-10-24T09:34:51.069Z,1007.15
2017-10-24T09:36:00.702Z,1007.07
2017-10-24T09:37:10.332Z,1007.13
2017-10-24T09:38:19.969Z,1007.01
2017-10-24T09:39:29.597Z,1007.20
2017-10-24T09:40:39.232Z,1007.16
2017-10-24T09:41:48.863Z,1007.40
2017-10-24T09:42:58.512Z,1007.32
2017-10-24T09:44:08.129Z,1007.28
2017-10-24T09:45:17.835Z,1007.13
2017-10-24T09:46:27.391Z,1007.06
2017-10-24T09:47:36.989Z,1007.18
2017-10-24T09:48:46.636Z,1007.21
2017-10-24T09:49:56.237Z,1007.40
2017-10-24T09:51:05.926Z,1007.27
2017-10-24T09:52:15.556Z,1007.14
2017-10-24T09:53:25.138Z,1007.20
2017-10-24T09:54:34.822Z,1007.27
2017-10-24T09:55:44.397Z,1007.22
2017-10-24T09:56:53.985Z,1007.19
2017-10-24T09:58:03.811Z,1007.14
2017-10-24T09:59:13.224Z,1007.06
2017-10-24T10:00:22.848Z,1007.08
2017-10-24T10:01:32.594Z,1006.94
2017-10-24T10:02:42.091Z,1007.09
2017-10-24T10:03:51.744Z,1007.05
2017-10-24T10:05:01.345Z,1007.11
2017-10-24T10:06:10.986Z,1007.13
2017-10-24T10:07:20.684Z,1007.20
2017-10-24T10:08:30.332Z,1007.19
2017-10-24T10:09:39.846Z,1007.30
2017-10-24T10:10:49.484Z,1007.14
2017-10-24T10:11:59.195Z,1007.08
2017-10-24T10:13:08.928Z,1007.02
2017-10-24T10:14:18.644Z,1007.23
2017-10-24T10:15:27.960Z,1007.10
2017-10-24T10:16:37.643Z,1007.14
2017-10-24T10:17:48.367Z,1007.12
2017-10-24T10:18:57.320Z,1007.13
2017-10-24T10:20:06.469Z,1007.23
2017-10-24T10:21:16.105Z,1007.22
2017-10-24T10:22:25.807Z,1007.11
2017-10-24T10:23:35.460Z,1007.03
2017-10-24T10:24:45.074Z,1007.00
2017-10-24T10:25:54.663Z,1007.07
2017-10-24T10:27:04.338Z,1007.14
2017-10-24T10:28:13.994Z,1007.13
2017-10-24T10:29:23.602Z,1006.99
2017-10-24T10:30:34.163Z,1007.08
2017-10-24T10:31:42.773Z,1007.02
2017-10-24T10:32:52.406Z,1007.01
2017-10-24T10:34:02.061Z,1006.88
2017-10-24T10:35:12.181Z,1006.92
2017-10-24T10:36:21.464Z,1006.88
2017-10-24T10:37:30.937Z,1006.73
2017-10-24T10:38:40.583Z,1006.74
2017-10-24T10:39:50.787Z,1006.65
2017-10-24T10:40:59.830Z,1006.73
2017-10-24T10:42:10.594Z,1006.87
2017-10-24T10:43:19.629Z,1006.80
2017-10-24T10:44:28.727Z,1006.80
2017-10-24T10:45:38.365Z,1006.71
2017-10-24T10:46:48.096Z,1006.84
2017-10-24T10:47:57.729Z,1006.78
2017-10-24T10:49:07.382Z,1006.80
2017-10-24T10:50:17.069Z,1006.86
2017-10-24T10:51:27.139Z,1006.75
2017-10-24T10:52:36.262Z,1006.87
2017-10-24T10:53:45.912Z,1006.74
2017-10-24T10:54:55.545Z,1006.90
2017-10-24T10:56:05.189Z,1006.70
2017-10-24T10:57:14.892Z,1006.77
2017-10-24T10:58:24.789Z,1006.74
2017-10-24T10:59:34.162Z,1006.68
2017-10-24T11:00:43.896Z,1006.70
2017-10-24T11:01:53.530Z,1006.83
2017-10-24T11:03:03.109Z,1006.79
2017-10-24T11:04:12.811Z,1006.50
2017-10-24T11:05:22.530Z,1006.65
2017-10-24T11:06:32.090Z,1006.66
2017-10-24T11:07:41.794Z,1006.68
2017-10-24T11:08:52.991Z,1006.72
2017-10-24T11:10:01.238Z,1006.91
2017-10-24T11:11:10.801Z,1006.93
2017-10-24T11:12:21.043Z,1006.83
2017-10-24T11:13:30.932Z,1007.02
2017-10-24T11:14:40.614Z,1006.69
2017-10-24T11:15:49.532Z,1006.84
2017-10-24T11:16:59.165Z,1006.79
2017-10-24T11:18:08.768Z,1006.88
2017-10-24T11:19:18.458Z,1006.71
2017-10-24T11:20:28.676Z,1006.75
2017-10-24T11:21:37.752Z,1006.80
2017-10-24T11:22:47.908Z,1006.78
2017-10-24T11:23:57.099Z,1006.78
2017-10-24T11:25:06.875Z,1006.78
2017-10-24T11:26:16.507Z,1007.00
2017-10-24T11:27:26.067Z,1006.83
2017-10-24T11:28:36.749Z,1006.91
2017-10-24T11:29:45.432Z,1006.95
2017-10-24T11:30:55.067Z,1007.04
2017-10-24T11:32:04.726Z,1007.11
2017-10-24T11:33:14.383Z,1007.14
2017-10-24T11:34:24.082Z,1007.10
2017-10-24T11:35:33.696Z,1007.05
2017-10-24T11:36:43.432Z,1006.96
2017-10-24T11:37:53.001Z,1006.89
2017-10-24T11:39:02.715Z,1006.92
2017-10-24T11:40:12.407Z,1007.01
2017-10-24T11:41:21.969Z,1006.91
2017-10-24T11:42:32.288Z,1006.95
2017-10-24T11:43:41.516Z,1006.97
2017-10-24T11:44:50.939Z,1006.90
2017-10-24T11:46:00.602Z,1006.94
2017-10-24T11:47:10.333Z,1006.79
2017-10-24T11:48:19.913Z,1006.89
2017-10-24T11:49:29.616Z,1006.87
2017-10-24T11:50:39.238Z,1006.81
2017-10-24T11:51:48.940Z,1006.93
2017-10-24T11:52:58.507Z,1006.80
2017-10-24T11:54:08.417Z,1006.79
2017-10-24T11:55:17.826Z,1006.80
2017-10-24T11:56:27.500Z,1006.79
2017-10-24T11:57:37.233Z,1006.84
2017-10-24T11:58:46.851Z,1006.86
2017-10-24T11:59:56.474Z,1006.83
2017-10-24T12:01:06.141Z,1006.99
2017-10-24T12:02:15.870Z,1006.93
2017-10-24T12:03:26.029Z,1006.88
2017-10-24T12:04:35.150Z,1007.03
2017-10-24T12:05:44.796Z,1006.92
2017-10-24T12:06:54.503Z,1006.93
2017-10-24T12:08:04.103Z,1006.87
2017-10-24T12:09:13.783Z,1006.86
2017-10-24T12:10:23.911Z,1006.90
2017-10-24T12:11:33.076Z,1006.89
2017-10-24T12:12:42.729Z,1006.80
2017-10-24T12:13:52.417Z,1006.71
2017-10-24T12:15:02.047Z,1006.60
2017-10-24T12:16:11.769Z,1006.63
2017-10-24T12:17:21.364Z,1006.58
2017-10-24T12:18:31.048Z,1006.66
2017-10-24T12:19:40.681Z,1006.72
2017-10-24T12:20:50.337Z,1006.54
2017-10-24T12:21:59.988Z,1006.48
2017-10-24T12:23:09.669Z,1006.56
2017-10-24T12:24:19.418Z,1006.51
2017-10-24T12:25:28.984Z,1006.56
2017-10-24T12:26:38.670Z,1006.43
2017-10-24T12:27:48.489Z,1006.41
2017-10-24T12:28:58.001Z,1006.57
2017-10-24T12:30:07.640Z,1006.51
2017-10-24T12:31:17.817Z,1006.49
2017-10-24T12:32:26.999Z,1006.56
2017-10-24T12:33:36.789Z,1006.48
2017-10-24T12:34:46.482Z,1006.52
2017-10-24T12:35:56.054Z,1006.52
2017-10-24T12:37:05.783Z,1006.40
2017-10-24T12:38:15.363Z,1006.46
2017-10-24T12:39:25.057Z,1006.32
2017-10-24T12:40:35.697Z,1006.13
2017-10-24T12:41:44.407Z,1006.27
2017-10-24T12:42:54.148Z,1006.33
2017-10-24T12:44:03.792Z,1006.38
2017-10-24T12:45:13.511Z,1006.41
2017-10-24T12:46:23.223Z,1006.44
2017-10-24T12:47:32.777Z,1006.43
2017-10-24T12:48:42.458Z,1006.42
2017-10-24T12:49:52.674Z,1006.44
2017-10-24T12:51:01.883Z,1006.41
2017-10-24T12:52:11.514Z,1006.26
2017-10-24T12:53:21.146Z,1006.34
2017-10-24T12:54:30.896Z,1006.39
2017-10-24T12:55:41.027Z,1006.52
2017-10-24T12:56:50.175Z,1006.39
2017-10-24T12:58:00.356Z,1006.25
2017-10-24T12:59:09.633Z,1006.11
2017-10-24T13:00:19.220Z,1006.10
2017-10-24T13:01:29.909Z,1006.16
2017-10-24T13:02:38.606Z,1006.35
2017-10-24T13:03:48.332Z,1006.40
2017-10-24T13:04:58.088Z,1006.46
2017-10-24T13:06:07.725Z,1006.49
2017-10-24T13:07:17.387Z,1005.27
2017-10-24T13:08:27.091Z,1005.53
2017-10-24T13:09:36.841Z,1006.80
2017-10-24T13:10:46.463Z,1006.89
2017-10-24T13:11:56.278Z,1006.76
2017-10-24T13:13:05.843Z,1006.77
2017-10-24T13:14:15.745Z,1006.56
2017-10-24T13:15:25.736Z,1006.56
2017-10-24T13:16:34.945Z,1006.49
2017-10-24T13:17:44.629Z,1006.47
2017-10-24T13:18:54.329Z,1006.33
2017-10-24T13:20:04.062Z,1006.20
2017-10-24T13:21:13.767Z,1006.17
2017-10-24T13:22:24.938Z,1006.21
2017-10-24T13:23:33.416Z,1005.97
2017-10-24T13:24:43.055Z,1005.90
2017-10-24T13:25:53.134Z,1005.86
2017-10-24T13:27:02.751Z,1005.84
2017-10-24T13:28:11.979Z,1005.90
2017-10-24T13:29:21.694Z,1005.83
2017-10-24T13:30:31.435Z,1005.85
2017-10-24T13:31:41.768Z,1005.94
2017-10-24T13:32:51.503Z,1005.82
2017-10-24T13:34:00.650Z,1005.90
2017-10-24T13:35:10.683Z,1005.90
2017-10-24T13:36:20.122Z,1005.95
2017-10-24T13:37:29.869Z,1005.82
2017-10-24T13:38:40.618Z,1005.85
2017-10-24T13:39:49.947Z,1005.83
2017-10-24T13:40:59.368Z,1005.84
2017-10-24T13:42:08.903Z,1006.03
2017-10-24T13:43:18.649Z,1006.01
2017-10-24T13:44:28.399Z,1005.94
2017-10-24T13:45:38.190Z,1005.87
2017-10-24T13:46:47.912Z,1005.93
2017-10-24T13:47:58.266Z,1006.00
2017-10-24T13:49:07.514Z,1006.20
2017-10-24T13:50:17.263Z,1006.00
2017-10-24T13:51:27.057Z,1005.84
2017-10-24T13:52:36.837Z,1005.94
2017-10-24T13:53:46.639Z,1005.97
2017-10-24T13:54:56.465Z,1005.90
2017-10-24T13:56:06.281Z,1006.07
2017-10-24T13:57:16.077Z,1006.08
2017-10-24T13:58:25.914Z,1006.17
2017-10-24T13:59:35.746Z,1006.25
2017-10-24T14:00:45.516Z,1006.29